| time (UTC) | temp F | wind direction | speed MPH | gust MPH | rain 1hr in | rain 24hr in | rain mn in | humidity % | barometer mb |
| 20260902211609 | 66 | 149 | 1.0 | 0.0 | 0.00 | 0.00 | 0.00 | 69 | 1021.1 |
| 20260902210005 | 66 | 154 | 2.0 | 0.0 | 0.00 | 0.00 | 0.00 | 69 | 1021.1 |
| 20260902204545 | 66 | 161 | 4.0 | 0.0 | 0.00 | 0.00 | 0.00 | 70 | 1020.9 |
| 20260902203054 | 66 | 156 | 2.0 | 0.0 | 0.00 | 0.00 | 0.00 | 69 | 1020.9 |
| 20260902201529 | 66 | 151 | 3.0 | 0.0 | 0.00 | 0.00 | 0.00 | 69 | 1020.8 |
| 20260902200035 | 66 | 144 | 3.0 | 0.0 | 0.00 | 0.00 | 0.00 | 68 | 1020.8 |
| 20260902194509 | 66 | 142 | 1.0 | 0.0 | 0.00 | 0.00 | 0.00 | 66 | 1020.7 |
| 20260902193043 | 67 | 141 | 2.0 | 0.0 | 0.00 | 0.00 | 0.00 | 65 | 1020.6 |
| 20260902191519 | 68 | 155 | 2.0 | 0.0 | 0.00 | 0.00 | 0.00 | 63 | 1020.4 |
| 20260902190050 | 69 | 187 | 1.0 | 0.0 | 0.00 | 0.00 | 0.00 | 62 | 1020.2 |
| 20260902184518 | 69 | 217 | 1.0 | 0.0 | 0.00 | 0.00 | 0.00 | 60 | 1020.0 |
| 20260902183055 | 70 | 217 | 3.0 | 0.0 | 0.00 | 0.00 | 0.00 | 59 | 1019.7 |
| 20260902181521 | 72 | 211 | 3.0 | 0.0 | 0.00 | 0.00 | 0.00 | 56 | 1019.6 |
| 20260902180034 | 74 | 225 | 4.0 | 0.0 | 0.00 | 0.00 | 0.00 | 55 | 1019.5 |
| 20260902174506 | 75 | 236 | 3.0 | 0.0 | 0.00 | 0.00 | 0.00 | 52 | 1019.4 |
| 20260902173038 | 76 | 307 | 1.0 | 0.0 | 0.00 | 0.00 | 0.00 | 52 | 1019.3 |
| 20260902171510 | 76 | 192 | 1.0 | 0.0 | 0.00 | 0.00 | 0.00 | 50 | 1019.3 |
| 20260902170042 | 75 | 300 | 0.0 | 0.0 | 0.00 | 0.00 | 0.00 | 52 | 1019.1 |
| 20260902164518 | 76 | 325 | 1.0 | 0.0 | 0.00 | 0.00 | 0.00 | 53 | 1019.1 |
| 20260902163051 | 76 | 284 | 3.0 | 0.0 | 0.00 | 0.00 | 0.00 | 52 | 1019.1 |
| 20260902161605 | 79 | 251 | 7.0 | 0.0 | 0.00 | 0.00 | 0.00 | 45 | 1019.1 |
| 20260902160029 | 80 | 313 | 6.0 | 0.0 | 0.00 | 0.00 | 0.00 | 45 | 1019.1 |
| 20260902154501 | 79 | 228 | 8.0 | 0.0 | 0.00 | 0.00 | 0.00 | 46 | 1018.9 |
| 20260902153007 | 80 | 248 | 6.0 | 0.0 | 0.00 | 0.00 | 0.00 | 45 | 1018.9 |
| 20260902151541 | 81 | 258 | 6.0 | 0.0 | 0.00 | 0.00 | 0.00 | 44 | 1018.9 |
| 20260902150055 | 79 | 260 | 5.0 | 0.0 | 0.00 | 0.00 | 0.00 | 45 | 1019.0 |
| 20260902144525 | 81 | 197 | 3.0 | 0.0 | 0.00 | 0.00 | 0.00 | 42 | 1019.1 |
| 20260902143103 | 81 | 246 | 3.0 | 0.0 | 0.00 | 0.00 | 0.00 | 45 | 1019.1 |
| 20260902141527 | 80 | 241 | 1.0 | 0.0 | 0.00 | 0.00 | 0.00 | 47 | 1019.1 |
| 20260902140045 | 78 | 284 | 2.0 | 0.0 | 0.00 | 0.00 | 0.00 | 48 | 1019.2 |
| 20260902134515 | 77 | 325 | 2.0 | 0.0 | 0.00 | 0.00 | 0.00 | 54 | 1019.4 |
| 20260902133058 | 79 | 260 | 5.0 | 0.0 | 0.00 | 0.00 | 0.00 | 45 | 1019.2 |
| 20260902131524 | 81 | 232 | 4.0 | 0.0 | 0.00 | 0.00 | 0.00 | 43 | 1019.4 |
| 20260902130051 | 80 | 289 | 3.0 | 0.0 | 0.00 | 0.00 | 0.00 | 50 | 1019.4 |
| 20260902124518 | 78 | 230 | 4.0 | 0.0 | 0.00 | 0.00 | 0.00 | 46 | 1019.4 |
| 20260902123050 | 78 | 159 | 2.0 | 0.0 | 0.00 | 0.00 | 0.00 | 48 | 1019.5 |
| 20260902121502 | 78 | 203 | 4.0 | 0.0 | 0.00 | 0.00 | 0.00 | 46 | 1019.6 |
| 20260902120032 | 78 | 36 | 3.0 | 0.0 | 0.00 | 0.00 | 0.00 | 46 | 1019.7 |
| 20260902114507 | 77 | 334 | 4.0 | 0.0 | 0.00 | 0.00 | 0.00 | 52 | 1019.9 |
| 20260902113043 | 78 | 341 | 2.0 | 0.0 | 0.00 | 0.00 | 0.00 | 48 | 1020.0 |
| 20260902111557 | 77 | 294 | 1.0 | 0.0 | 0.00 | 0.00 | 0.00 | 48 | 1020.2 |
| 20260902110004 | 76 | 302 | 3.0 | 0.0 | 0.00 | 0.00 | 0.00 | 51 | 1020.3 |
| 20260902104516 | 76 | 317 | 1.0 | 0.0 | 0.00 | 0.00 | 0.00 | 49 | 1020.3 |
| 20260902103050 | 74 | 9 | 2.0 | 0.0 | 0.00 | 0.00 | 0.00 | 52 | 1020.6 |
| 20260902101525 | 74 | 316 | 2.0 | 0.0 | 0.00 | 0.00 | 0.00 | 62 | 1020.7 |
| 20260902100046 | 73 | 280 | 2.0 | 0.0 | 0.00 | 0.00 | 0.00 | 62 | 1020.7 |
| 20260902094559 | 71 | 252 | 3.0 | 0.0 | 0.00 | 0.00 | 0.00 | 64 | 1020.8 |
| 20260902093038 | 70 | 315 | 2.0 | 0.0 | 0.00 | 0.00 | 0.00 | 67 | 1020.9 |
| 20260902091601 | 68 | 251 | 2.0 | 0.0 | 0.00 | 0.00 | 0.00 | 69 | 1020.9 |
| 20260902090028 | 67 | 49 | 0.0 | 0.0 | 0.00 | 0.00 | 0.00 | 72 | 1021.0 |
| 20260902084553 | 66 | 49 | 0.0 | 0.0 | 0.00 | 0.00 | 0.00 | 74 | 1021.1 |
| 20260902083013 | 63 | 321 | 2.0 | 0.0 | 0.00 | 0.00 | 0.00 | 77 | 1021.0 |
| 20260902081602 | 64 | 307 | 2.0 | 0.0 | 0.00 | 0.00 | 0.00 | 73 | 1020.8 |
| 20260902080013 | 63 | 239 | 4.0 | 0.0 | 0.00 | 0.00 | 0.00 | 71 | 1020.6 |
| 20260902074551 | 63 | 221 | 4.0 | 0.0 | 0.00 | 0.00 | 0.00 | 73 | 1020.6 |
| 20260902073101 | 62 | 244 | 2.0 | 0.0 | 0.00 | 0.00 | 0.00 | 76 | 1020.6 |
| 20260902071534 | 61 | 292 | 0.0 | 0.0 | 0.00 | 0.00 | 0.00 | 78 | 1020.5 |
| 20260902070041 | 60 | 330 | 0.0 | 0.0 | 0.00 | 0.00 | 0.00 | 81 | 1020.3 |
| 20260902064617 | 60 | 330 | 0.0 | 0.0 | 0.00 | 0.00 | 0.00 | 81 | 1020.2 |
| 20260902063031 | 59 | 331 | 1.0 | 0.0 | 0.00 | 0.00 | 0.00 | 81 | 1020.4 |
| 20260902061549 | 58 | 174 | 3.0 | 0.0 | 0.00 | 0.00 | 0.00 | 81 | 1020.3 |
| 20260902060016 | 57 | 149 | 2.0 | 0.0 | 0.00 | 0.00 | 0.00 | 83 | 1020.4 |
| 20260902054532 | 56 | 149 | 4.0 | 0.0 | 0.00 | 0.00 | 0.00 | 83 | 1020.4 |
| 20260902053036 | 55 | 153 | 3.0 | 0.0 | 0.00 | 0.00 | 0.00 | 85 | 1020.4 |
| 20260902051505 | 55 | 176 | 0.0 | 0.0 | 0.00 | 0.00 | 0.00 | 84 | 1020.4 |
| 20260902050038 | 55 | 175 | 2.0 | 0.0 | 0.00 | 0.00 | 0.00 | 83 | 1020.0 |
| 20260902044606 | 55 | 152 | 2.0 | 0.0 | 0.00 | 0.00 | 0.00 | 82 | 1020.0 |
| 20260902043015 | 56 | 152 | 1.0 | 0.0 | 0.00 | 0.00 | 0.00 | 82 | 1020.0 |
| 20260902041549 | 56 | 190 | 4.0 | 0.0 | 0.00 | 0.00 | 0.00 | 82 | 1019.9 |
| 20260902040001 | 55 | 167 | 2.0 | 0.0 | 0.00 | 0.00 | 0.00 | 82 | 1019.8 |
| 20260902034518 | 56 | 152 | 3.0 | 0.0 | 0.00 | 0.00 | 0.00 | 80 | 1019.9 |
| 20260902033032 | 56 | 142 | 1.0 | 0.0 | 0.00 | 0.00 | 0.00 | 80 | 1019.9 |
| 20260902031504 | 55 | 149 | 4.0 | 0.0 | 0.00 | 0.00 | 0.00 | 82 | 1019.8 |
| 20260902030035 | 55 | 174 | 3.0 | 0.0 | 0.00 | 0.00 | 0.00 | 82 | 1019.9 |
| 20260902024519 | 55 | 157 | 2.0 | 0.0 | 0.00 | 0.00 | 0.00 | 81 | 1019.9 |
| 20260902023043 | 56 | 175 | 3.0 | 0.0 | 0.00 | 0.00 | 0.00 | 81 | 1019.8 |
| 20260902021557 | 56 | 156 | 2.0 | 0.0 | 0.00 | 0.00 | 0.00 | 80 | 1019.9 |
| 20260902014538 | 57 | 147 | 6.0 | 0.0 | 0.00 | 0.00 | 0.00 | 80 | 1019.7 |
| 20260902013101 | 57 | 149 | 5.0 | 0.0 | 0.00 | 0.00 | 0.00 | 80 | 1019.7 |
| 20260902011531 | 57 | 146 | 5.0 | 0.0 | 0.00 | 0.00 | 0.00 | 82 | 1019.8 |
| 20260902010009 | 56 | 146 | 5.0 | 0.0 | 0.00 | 0.00 | 0.00 | 84 | 1020.0 |
| 20260902004537 | 56 | 146 | 4.0 | 0.0 | 0.00 | 0.00 | 0.00 | 85 | 1020.0 |
| 20260902003009 | 56 | 144 | 3.0 | 0.0 | 0.00 | 0.00 | 0.00 | 84 | 1020.0 |
| 20260902001544 | 56 | 147 | 4.0 | 0.0 | 0.00 | 0.00 | 0.00 | 84 | 1019.9 |
| 20260902000015 | 56 | 157 | 3.0 | 0.0 | 0.00 | 0.00 | 0.00 | 83 | 1020.0 |
| 20260901234550 | 57 | 144 | 2.0 | 0.0 | 0.00 | 0.00 | 0.00 | 82 | 1020.0 |
| 20260901233020 | 57 | 148 | 2.0 | 0.0 | 0.00 | 0.00 | 0.00 | 81 | 1019.8 |
| 20260901231555 | 57 | 140 | 2.0 | 0.0 | 0.00 | 0.00 | 0.00 | 81 | 1019.9 |
| 20260901230027 | 57 | 153 | 1.0 | 0.0 | 0.00 | 0.00 | 0.00 | 81 | 1019.9 |
| 20260901224542 | 58 | 147 | 2.0 | 0.0 | 0.00 | 0.00 | 0.00 | 80 | 1019.8 |
| 20260901223012 | 58 | 147 | 1.0 | 0.0 | 0.00 | 0.00 | 0.00 | 79 | 1019.7 |
| 20260901221546 | 58 | 147 | 1.0 | 0.0 | 0.00 | 0.00 | 0.00 | 78 | 1019.6 |
| 20260901220059 | 59 | 147 | 3.0 | 0.0 | 0.00 | 0.00 | 0.00 | 77 | 1019.7 |
| 20260901214512 | 60 | 144 | 2.0 | 0.0 | 0.00 | 0.00 | 0.00 | 76 | 1019.7 |
| 20260901213108 | 61 | 156 | 1.0 | 0.0 | 0.00 | 0.00 | 0.00 | 74 | 1019.7 |